Time;durP1;ratioP1;P1;durP2;ratioP2;P2;SDS_P1;SDS_P2;PMS_P1;PMS_P2;Temp;Humidity;BMP_temperature;BMP_pressure;BME280_temperature;BME280_humidity;BME280_pressure;Samples;Min_cycle;Max_cycle;Signal;HPM_P1;HPM_P2
2021/08/29 00:01:00;;;;;;;;;;;13.00;99.90;;;;;;5101811;28;20434;-65
2021/08/29 00:03:26;;;;;;;3.72;0.75;;;13.00;99.90;;;;;;5103887;28;20045;-65
2021/08/29 00:05:52;;;;;;;1.23;0.43;;;13.00;99.90;;;;;;5103301;28;20043;-65
2021/08/29 00:08:18;;;;;;;1.38;0.30;;;13.00;99.90;;;;;;5103063;28;20415;-64
2021/08/29 00:10:44;;;;;;;;;;;13.00;99.90;;;;;;5103001;28;20047;-65
2021/08/29 00:13:10;;;;;;;13.30;6.80;;;12.90;99.90;;;;;;5103567;28;20302;-65
2021/08/29 00:15:38;;;;;;;7.22;4.07;;;12.90;99.90;;;;;;5103129;28;20032;-65
2021/08/29 00:18:04;;;;;;;1.48;1.05;;;12.90;99.90;;;;;;5095029;28;20036;-65
2021/08/29 00:20:30;;;;;;;2.38;0.85;;;12.90;99.90;;;;;;5099664;28;20047;-64
2021/08/29 00:22:56;;;;;;;;;;;12.90;99.90;;;;;;5084197;28;20042;-65
2021/08/29 00:25:21;;;;;;;1.13;0.60;;;12.90;99.90;;;;;;5110110;28;19946;-65
2021/08/29 00:27:47;;;;;;;;;;;12.80;99.90;;;;;;5111206;28;20082;-65
2021/08/29 00:30:13;;;;;;;0.77;0.57;;;12.90;99.90;;;;;;5109553;27;19965;-64
2021/08/29 00:32:39;;;;;;;;;;;12.90;99.90;;;;;;5110763;28;20048;-65
2021/08/29 00:35:05;;;;;;;1.30;0.80;;;12.90;99.90;;;;;;5110015;28;19965;-65
2021/08/29 00:37:31;;;;;;;;;;;12.90;99.90;;;;;;5091968;28;20075;-65
2021/08/29 00:39:56;;;;;;;1.85;0.90;;;12.90;99.90;;;;;;5089473;28;19919;-65
2021/08/29 00:42:22;;;;;;;;;;;12.90;99.90;;;;;;5090284;28;20479;-65
2021/08/29 00:44:48;;;;;;;2.03;0.93;;;12.90;99.90;;;;;;5089307;28;20388;-65
2021/08/29 00:47:13;;;;;;;;;;;12.90;99.90;;;;;;5088963;28;20116;-64
2021/08/29 00:49:41;;;;;;;2.20;1.50;;;12.90;99.90;;;;;;5089032;28;20264;-64
2021/08/29 00:52:07;;;;;;;6.25;1.27;;;12.90;99.90;;;;;;5098360;28;20398;-65
2021/08/29 00:54:34;;;;;;;9.15;1.58;;;12.90;99.90;;;;;;5110179;28;20054;-65
2021/08/29 00:57:07;;;;;;;2.40;1.38;;;12.90;99.90;;;;;;5109406;28;20495;-64
2021/08/29 00:59:34;;;;;;;3.00;1.75;;;12.90;99.90;;;;;;5109140;28;20047;-65
2021/08/29 01:02:11;;;;;;;2.70;1.55;;;12.90;99.90;;;;;;5108996;27;20092;-64
2021/08/29 01:05:18;;;;;;;3.80;1.33;;;12.90;99.90;;;;;;5109283;28;20479;-65
2021/08/29 01:07:59;;;;;;;3.58;1.60;;;12.90;99.90;;;;;;5083008;28;20139;-65
2021/08/29 01:10:47;;;;;;;1.92;1.20;;;12.90;99.90;;;;;;5088886;28;20052;-64
2021/08/29 01:13:39;;;;;;;1.70;1.30;;;12.90;99.90;;;;;;5088926;28;20055;-64
2021/08/29 01:16:11;;;;;;;1.73;1.42;;;12.90;99.90;;;;;;5087801;28;20036;-65
2021/08/29 01:18:40;;;;;;;2.38;1.13;;;12.80;99.90;;;;;;5086760;28;20040;-64
2021/08/29 01:21:11;;;;;;;2.92;1.60;;;12.80;99.90;;;;;;5097020;28;20046;-65
2021/08/29 01:23:39;;;;;;;6.25;1.10;;;12.90;99.90;;;;;;5103511;28;20046;-65
2021/08/29 01:26:20;;;;;;;1.08;0.75;;;12.80;99.90;;;;;;5108486;28;20047;-65
2021/08/29 01:28:56;;;;;;;0.63;0.40;;;12.90;99.90;;;;;;5108268;28;20411;-64
2021/08/29 01:31:24;;;;;;;3.42;0.60;;;12.80;99.90;;;;;;5108756;28;20055;-65
2021/08/29 01:33:50;;;;;;;11.05;1.00;;;12.90;99.90;;;;;;5109493;28;20036;-65
2021/08/29 01:36:17;;;;;;;0.50;0.30;;;12.80;99.90;;;;;;5109186;27;20095;-65
2021/08/29 01:38:45;;;;;;;4.57;0.85;;;12.80;99.90;;;;;;5109269;28;20491;-65
2021/08/29 01:41:13;;;;;;;0.40;0.28;;;12.80;99.90;;;;;;5108550;28;20161;-66
2021/08/29 01:43:41;;;;;;;2.75;0.20;;;12.80;99.90;;;;;;5108933;28;20110;-65
2021/08/29 01:46:07;;;;;;;0.30;0.20;;;12.80;99.90;;;;;;5108405;28;20035;-64
2021/08/29 01:48:34;;;;;;;4.38;0.22;;;12.80;99.90;;;;;;5108269;28;20072;-65
2021/08/29 01:51:00;;;;;;;1.83;0.20;;;12.80;99.90;;;;;;5103004;28;20105;-65
2021/08/29 01:53:26;;;;;;;0.40;0.30;;;12.80;99.90;;;;;;5101123;28;20050;-65
2021/08/29 01:55:51;;;;;;;;;;;12.80;99.90;;;;;;5109930;28;20036;-65
2021/08/29 01:58:18;;;;;;;0.43;0.38;;;12.70;99.90;;;;;;5107350;28;19916;-65
2021/08/29 02:00:53;;;;;;;0.60;0.40;;;12.70;99.90;;;;;;5108182;27;20036;-65
2021/08/29 02:03:19;;;;;;;1.45;0.50;;;12.70;99.90;;;;;;5109806;28;20487;-65
2021/08/29 02:05:48;;;;;;;0.95;0.40;;;12.80;99.90;;;;;;5108600;28;20208;-64
2021/08/29 02:08:16;;;;;;;0.50;0.32;;;12.80;99.90;;;;;;5108735;28;20035;-64
2021/08/29 02:10:47;;;;;;;1.55;0.40;;;12.80;99.90;;;;;;5108486;28;20505;-65
2021/08/29 02:13:14;;;;;;;1.13;0.52;;;12.80;99.90;;;;;;5108125;28;20040;-65
2021/08/29 02:15:44;;;;;;;4.97;0.63;;;12.80;99.90;;;;;;5107489;28;20036;-64
2021/08/29 02:18:11;;;;;;;1.77;0.52;;;12.80;99.90;;;;;;5097256;28;20642;-65
2021/08/29 02:20:38;;;;;;;1.45;0.80;;;12.80;99.90;;;;;;5087880;28;20124;-65
2021/08/29 02:23:05;;;;;;;8.18;0.75;;;12.80;99.90;;;;;;5087132;28;20111;-65
2021/08/29 02:25:31;;;;;;;0.80;0.40;;;12.80;99.90;;;;;;5087749;28;20054;-65
2021/08/29 02:27:57;;;;;;;0.85;0.57;;;12.80;99.90;;;;;;5086945;28;20044;-65
2021/08/29 02:30:24;;;;;;;1.35;0.43;;;12.80;99.90;;;;;;5086144;28;20406;-65
2021/08/29 02:32:52;;;;;;;2.45;0.25;;;12.80;99.90;;;;;;5086823;28;20117;-65
2021/08/29 02:35:18;;;;;;;0.30;0.30;;;12.80;99.90;;;;;;5087482;28;20036;-65
2021/08/29 02:37:44;;;;;;;1.58;0.32;;;12.80;99.90;;;;;;5086797;28;20720;-65
2021/08/29 02:40:12;;;;;;;3.15;0.30;;;12.80;99.90;;;;;;5092032;28;20106;-65
2021/08/29 02:42:40;;;;;;;4.78;0.50;;;12.80;99.90;;;;;;5086095;28;20036;-65
2021/08/29 02:45:08;;;;;;;10.05;1.63;;;12.80;99.90;;;;;;5087532;28;20101;-65
2021/08/29 02:47:34;;;;;;;3.13;0.40;;;12.70;99.90;;;;;;5085794;28;20044;-65
2021/08/29 02:49:59;;;;;;;;;;;12.80;99.90;;;;;;5087794;28;20119;-65
2021/08/29 02:52:25;;;;;;;0.10;0.10;;;12.80;99.90;;;;;;5086381;28;20306;-65
2021/08/29 02:54:51;;;;;;;;;;;12.80;99.90;;;;;;5088301;28;20048;-64
2021/08/29 02:57:18;;;;;;;0.40;0.20;;;12.80;99.90;;;;;;5087012;28;19977;-65
2021/08/29 02:59:44;;;;;;;0.38;0.30;;;12.80;99.90;;;;;;5086849;28;20064;-65
2021/08/29 03:02:11;;;;;;;0.60;0.20;;;12.80;99.90;;;;;;5086634;28;20122;-65
2021/08/29 03:04:38;;;;;;;0.63;0.30;;;12.70;99.90;;;;;;5086478;28;20097;-64
2021/08/29 03:07:04;;;;;;;0.22;0.22;;;12.80;99.90;;;;;;5087562;28;20048;-65
2021/08/29 03:09:35;;;;;;;;;;;12.80;99.90;;;;;;5103541;28;20032;-65
2021/08/29 03:12:07;;;;;;;1.00;0.20;;;12.80;99.90;;;;;;5099462;28;19922;-65
2021/08/29 03:14:34;;;;;;;2.42;0.38;;;12.80;99.90;;;;;;5086416;28;20048;-64
2021/08/29 03:17:00;;;;;;;1.13;0.20;;;12.80;99.90;;;;;;5086133;28;20040;-65
2021/08/29 03:19:27;;;;;;;5.45;0.52;;;12.80;99.90;;;;;;5083357;28;20495;-65
2021/08/29 03:21:53;;;;;;;0.32;0.30;;;12.70;99.90;;;;;;5103251;28;20131;-65
2021/08/29 03:24:18;;;;;;;;;;;12.70;99.90;;;;;;5104149;28;20127;-65
2021/08/29 03:26:44;;;;;;;0.20;0.20;;;12.70;99.90;;;;;;5102207;28;19959;-64
2021/08/29 03:29:10;;;;;;;;;;;12.80;99.90;;;;;;5107317;28;20495;-64
2021/08/29 03:31:36;;;;;;;0.88;0.30;;;12.80;99.90;;;;;;5106460;28;19957;-65
2021/08/29 03:34:03;;;;;;;;;;;12.80;99.90;;;;;;5107365;28;20145;-64
2021/08/29 03:36:30;;;;;;;;;;;12.80;99.90;;;;;;5108526;28;19916;-65
2021/08/29 03:38:57;;;;;;;;;;;12.80;99.90;;;;;;5107622;28;19924;-66
2021/08/29 03:41:24;;;;;;;1.45;0.32;;;12.80;99.90;;;;;;5107374;28;19920;-64
2021/08/29 03:43:49;;;;;;;1.95;0.38;;;12.70;99.90;;;;;;5108372;28;20480;-64
2021/08/29 03:46:16;;;;;;;;;;;12.70;99.90;;;;;;5106525;28;20043;-65
2021/08/29 03:48:43;;;;;;;0.75;0.30;;;12.80;99.90;;;;;;5107107;28;19959;-65
2021/08/29 03:51:10;;;;;;;0.85;0.30;;;12.80;99.90;;;;;;5099576;28;20065;-66
2021/08/29 03:53:37;;;;;;;1.77;0.35;;;12.80;99.90;;;;;;5103306;28;20043;-65
2021/08/29 03:56:04;;;;;;;1.73;0.40;;;12.80;99.90;;;;;;5110918;28;20036;-64
2021/08/29 03:58:30;;;;;;;0.88;0.30;;;12.80;99.90;;;;;;5109835;28;20482;-64
2021/08/29 04:00:55;;;;;;;;;;;12.80;99.90;;;;;;5110704;28;20058;-64
2021/08/29 04:03:23;;;;;;;2.22;0.40;;;12.80;99.90;;;;;;5092214;28;19962;-66
2021/08/29 04:05:50;;;;;;;0.70;0.50;;;12.80;99.90;;;;;;5108103;28;20463;-65
2021/08/29 04:08:19;;;;;;;3.72;0.65;;;12.80;99.90;;;;;;5100053;28;20431;-63
2021/08/29 04:10:47;;;;;;;4.03;0.57;;;12.70;99.90;;;;;;5084262;28;20734;-64
2021/08/29 04:13:13;;;;;;;0.88;0.47;;;12.80;99.90;;;;;;5089889;28;20048;-64
2021/08/29 04:15:40;;;;;;;1.02;0.50;;;12.80;99.90;;;;;;5088059;28;20047;-64
2021/08/29 04:18:08;;;;;;;11.07;8.57;;;12.70;99.90;;;;;;5089352;28;20602;-64
2021/08/29 04:20:34;;;;;;;26.77;17.27;;;12.80;99.90;;;;;;5088494;28;20044;-64
2021/08/29 04:22:59;;;;;;;;;;;12.80;99.90;;;;;;5089616;28;20404;-64
2021/08/29 04:25:25;;;;;;;11.90;6.18;;;12.70;99.90;;;;;;5088274;28;20418;-64
2021/08/29 04:27:51;;;;;;;;;;;12.70;99.90;;;;;;5070527;28;20770;-65
2021/08/29 04:30:17;;;;;;;4.13;2.33;;;12.80;99.90;;;;;;5096829;28;20013;-64
2021/08/29 04:32:49;;;;;;;12.15;6.00;;;12.80;99.90;;;;;;5089080;28;20052;-64
2021/08/29 04:35:14;;;;;;;4.72;3.70;;;12.80;99.90;;;;;;5088859;28;20051;-64
2021/08/29 04:37:40;;;;;;;;;;;12.70;99.90;;;;;;5089611;28;20051;-65
2021/08/29 04:40:07;;;;;;;6.80;4.13;;;12.70;99.90;;;;;;5087724;28;19985;-64
2021/08/29 04:42:32;;;;;;;2.67;1.40;;;12.80;99.90;;;;;;5071325;28;20044;-64
2021/08/29 04:44:58;;;;;;;;;;;12.80;99.90;;;;;;5089462;28;20032;-64
2021/08/29 04:47:23;;;;;;;5.97;2.75;;;12.80;99.90;;;;;;5088462;28;20379;-63
2021/08/29 04:49:49;;;;;;;;;;;12.80;99.90;;;;;;5089627;28;20503;-64
2021/08/29 04:52:15;;;;;;;4.20;1.90;;;12.80;99.90;;;;;;5088801;28;19916;-64
2021/08/29 04:54:40;;;;;;;;;;;12.80;99.90;;;;;;5090611;28;20102;-64
2021/08/29 04:57:06;;;;;;;2.72;0.57;;;12.80;99.90;;;;;;5091082;28;20008;-64
2021/08/29 04:59:31;;;;;;;;;;;12.80;99.90;;;;;;5091573;28;20047;-64
2021/08/29 05:01:57;;;;;;;3.03;0.35;;;12.80;99.90;;;;;;5095214;28;19920;-65
2021/08/29 05:04:22;;;;;;;;;;;12.80;99.90;;;;;;5088365;28;20043;-64
2021/08/29 05:06:48;;;;;;;2.63;0.30;;;12.80;99.90;;;;;;5089278;28;19920;-64
2021/08/29 05:09:14;;;;;;;;;;;12.80;99.90;;;;;;5089692;28;20036;-63
2021/08/29 05:11:39;;;;;;;1.17;0.30;;;12.80;99.90;;;;;;5088102;28;19943;-64
2021/08/29 05:14:05;;;;;;;;;;;12.80;99.90;;;;;;5090084;28;20488;-64
2021/08/29 05:16:30;;;;;;;2.28;0.30;;;12.80;99.90;;;;;;5089718;28;19919;-64
2021/08/29 05:18:57;;;;;;;2.17;0.20;;;12.80;99.90;;;;;;5072451;28;20546;-65
2021/08/29 05:21:22;;;;;;;;;;;12.80;99.90;;;;;;5092189;28;20040;-64
2021/08/29 05:23:48;;;;;;;0.60;0.20;;;12.80;99.90;;;;;;5091251;28;19916;-65
2021/08/29 05:26:13;;;;;;;;;;;12.80;99.90;;;;;;5090645;28;20131;-64
2021/08/29 05:28:39;;;;;;;1.45;0.65;;;12.80;99.90;;;;;;5089403;28;20609;-63
2021/08/29 05:31:04;;;;;;;;;;;12.80;99.90;;;;;;5090014;28;20521;-64
2021/08/29 05:33:30;;;;;;;0.70;0.50;;;12.80;99.90;;;;;;5089067;28;19915;-64
2021/08/29 05:35:55;;;;;;;;;;;12.80;99.90;;;;;;5089927;28;20051;-64
2021/08/29 05:38:21;;;;;;;3.67;0.52;;;12.80;99.90;;;;;;5088427;28;20003;-65
2021/08/29 05:40:47;;;;;;;;;;;12.80;99.90;;;;;;5089851;28;20036;-66
2021/08/29 05:43:12;;;;;;;3.97;0.50;;;12.80;99.90;;;;;;5089661;28;19912;-63
2021/08/29 05:45:38;;;;;;;;;;;12.80;99.90;;;;;;5087621;28;20032;-63
2021/08/29 05:48:04;;;;;;;0.98;0.40;;;12.80;99.90;;;;;;5088727;28;19923;-64
2021/08/29 05:50:29;;;;;;;;;;;12.80;99.90;;;;;;5089200;28;20036;-64
2021/08/29 05:52:55;;;;;;;8.57;2.30;;;12.80;99.90;;;;;;5087699;28;19920;-64
2021/08/29 05:55:21;;;;;;;;;;;12.80;99.90;;;;;;5088828;28;20147;-65
2021/08/29 05:57:47;;;;;;;3.78;2.00;;;12.80;99.90;;;;;;5088838;28;19999;-67
2021/08/29 06:00:12;;;;;;;;;;;12.80;99.90;;;;;;5097007;28;20061;-65
2021/08/29 06:02:38;;;;;;;3.47;1.70;;;12.90;99.90;;;;;;5106592;28;19989;-63
2021/08/29 06:05:04;;;;;;;;;;;12.80;99.90;;;;;;5109210;28;20044;-65
2021/08/29 06:07:29;;;;;;;2.00;0.50;;;12.80;99.90;;;;;;5108304;28;19972;-65
2021/08/29 06:09:55;;;;;;;;;;;12.80;99.90;;;;;;5084941;28;20046;-66
2021/08/29 06:12:21;;;;;;;4.13;0.73;;;12.90;99.90;;;;;;5088210;28;19920;-63
2021/08/29 06:14:46;;;;;;;;;;;12.80;99.90;;;;;;5088222;28;20036;-65
2021/08/29 06:17:12;;;;;;;1.10;0.50;;;12.90;99.90;;;;;;5086079;28;19927;-63
2021/08/29 06:19:37;;;;;;;;;;;12.90;99.90;;;;;;5088489;28;20495;-63
2021/08/29 06:22:03;;;;;;;3.70;0.60;;;12.90;99.90;;;;;;5085807;28;19915;-63
2021/08/29 06:24:29;;;;;;;;;;;12.90;99.90;;;;;;5095308;28;20455;-63
2021/08/29 06:26:54;;;;;;;4.40;0.40;;;13.00;99.90;;;;;;5087941;28;20338;-63
2021/08/29 06:29:20;;;;;;;;;;;13.00;99.90;;;;;;5088332;28;20115;-63
2021/08/29 06:31:45;;;;;;;0.30;0.25;;;13.00;99.90;;;;;;5087343;28;20409;-63
2021/08/29 06:34:11;;;;;;;;;;;13.00;99.90;;;;;;5088286;28;20123;-63
2021/08/29 06:36:36;;;;;;;0.10;0.10;;;13.00;99.90;;;;;;5087337;28;20348;-63
2021/08/29 06:39:02;;;;;;;;;;;13.00;99.90;;;;;;5069606;28;20086;-63
2021/08/29 06:41:28;;;;;;;0.28;0.17;;;13.00;99.90;;;;;;5087975;28;20364;-63
2021/08/29 06:43:53;;;;;;;;;;;13.00;99.90;;;;;;5087316;28;20075;-63
2021/08/29 06:46:20;;;;;;;0.73;0.20;;;13.00;99.90;;;;;;5085218;28;19924;-62
2021/08/29 06:48:45;;;;;;;0.20;0.20;;;13.00;99.90;;;;;;5087574;28;20048;-63
2021/08/29 06:51:11;;;;;;;;;;;13.00;99.90;;;;;;5069533;28;20488;-63
2021/08/29 06:53:36;;;;;;;0.15;0.15;;;13.00;99.90;;;;;;5087336;28;19927;-67
2021/08/29 06:56:02;;;;;;;;;;;13.00;99.90;;;;;;5087702;28;20046;-62
2021/08/29 06:58:27;;;;;;;0.20;0.20;;;13.00;99.90;;;;;;5083198;28;19916;-63
2021/08/29 07:00:53;;;;;;;;;;;12.90;99.90;;;;;;5083522;28;20111;-62
2021/08/29 07:03:19;;;;;;;0.70;0.40;;;12.90;99.90;;;;;;5077947;28;20018;-63
2021/08/29 07:05:44;;;;;;;;;;;12.90;99.90;;;;;;5087031;28;20040;-63
2021/08/29 07:08:10;;;;;;;0.20;0.20;;;12.90;99.90;;;;;;5084438;28;20299;-63
2021/08/29 07:10:35;;;;;;;;;;;13.00;99.90;;;;;;5088067;28;20039;-63
2021/08/29 07:13:01;;;;;;;1.88;0.70;;;13.00;99.90;;;;;;5088412;28;19955;-63
2021/08/29 07:15:26;;;;;;;;;;;12.90;99.90;;;;;;5091327;28;20036;-63
2021/08/29 07:17:52;;;;;;;6.68;3.22;;;13.00;99.90;;;;;;5100833;28;19963;-63
2021/08/29 07:20:18;;;;;;;;;;;13.00;99.90;;;;;;5092478;28;20506;-63
2021/08/29 07:22:43;;;;;;;1.48;0.45;;;13.00;99.90;;;;;;5101173;28;19980;-63
2021/08/29 07:25:09;;;;;;;;;;;13.00;99.90;;;;;;5070127;28;20123;-63
2021/08/29 07:27:35;;;;;;;3.97;2.15;;;13.00;99.90;;;;;;5088269;28;19930;-63
2021/08/29 07:30:00;;;;;;;;;;;13.10;99.90;;;;;;5090916;28;20507;-63
2021/08/29 07:32:26;;;;;;;1.23;0.70;;;13.10;99.90;;;;;;5090738;28;20387;-63
2021/08/29 07:34:51;;;;;;;;;;;13.10;99.90;;;;;;5090606;28;20039;-63
2021/08/29 07:37:17;;;;;;;1.30;0.57;;;13.10;99.90;;;;;;5082201;28;19920;-63
2021/08/29 07:39:43;;;;;;;;;;;13.20;99.90;;;;;;5091029;28;20074;-64
2021/08/29 07:42:09;;;;;;;0.10;0.10;;;13.10;99.90;;;;;;5090365;28;19938;-63
2021/08/29 07:44:35;;;;;;;;;;;13.20;99.90;;;;;;5091047;28;20069;-63
2021/08/29 07:47:00;;;;;;;0.10;0.10;;;13.10;99.90;;;;;;5104432;28;19923;-63
2021/08/29 07:49:26;;;;;;;;;;;13.20;99.90;;;;;;5110685;28;20044;-63
2021/08/29 07:51:51;;;;;;;0.10;0.10;;;13.20;99.90;;;;;;5110920;28;20010;-63
2021/08/29 07:54:17;;;;;;;;;;;13.30;99.90;;;;;;5111311;28;20039;-64
2021/08/29 07:56:42;;;;;;;0.10;0.10;;;13.20;99.90;;;;;;5111419;28;19943;-63
2021/08/29 07:59:08;;;;;;;;;;;13.10;99.90;;;;;;5094779;28;20074;-63
2021/08/29 08:01:33;;;;;;;0.43;0.10;;;13.20;99.90;;;;;;5090062;28;19927;-63
2021/08/29 08:03:59;;;;;;;;;;;13.20;99.90;;;;;;5090989;28;20073;-63
2021/08/29 08:06:24;;;;;;;0.10;0.10;;;13.20;99.90;;;;;;5090135;28;19920;-63
2021/08/29 08:08:50;;;;;;;;;;;13.20;99.90;;;;;;5101691;28;20426;-63
2021/08/29 08:11:15;;;;;;;1.17;0.45;;;13.20;99.90;;;;;;5109721;28;19919;-64
2021/08/29 08:13:41;;;;;;;;;;;13.10;99.90;;;;;;5090156;28;20046;-62
2021/08/29 08:16:06;;;;;;;0.38;0.10;;;13.20;99.90;;;;;;5099569;28;20010;-62
2021/08/29 08:18:32;;;;;;;;;;;13.20;99.90;;;;;;5097554;28;20040;-61
2021/08/29 08:20:58;;;;;;;4.72;0.20;;;13.20;99.90;;;;;;5090668;28;20112;-62
2021/08/29 08:23:24;;;;;;;0.65;0.20;;;13.20;99.90;;;;;;5090053;28;20115;-62
2021/08/29 08:25:50;;;;;;;;;;;13.20;99.90;;;;;;5090814;28;20170;-62
2021/08/29 08:28:15;;;;;;;0.10;0.10;;;13.20;99.90;;;;;;5089544;28;20024;-62
2021/08/29 08:30:40;;;;;;;;;;;13.20;99.90;;;;;;5089725;28;20766;-62
2021/08/29 08:33:06;;;;;;;0.38;0.20;;;13.20;99.90;;;;;;5090955;28;20357;-62
2021/08/29 08:35:32;;;;;;;;;;;13.20;99.90;;;;;;5090466;28;20040;-61
2021/08/29 08:38:01;;;;;;;2.17;0.17;;;13.20;99.90;;;;;;5090165;28;19935;-62
2021/08/29 08:40:30;;;;;;;;;;;13.30;99.90;;;;;;5090045;28;20407;-62
2021/08/29 08:42:56;;;;;;;2.10;0.20;;;13.30;99.90;;;;;;5089683;28;19916;-62
2021/08/29 08:45:21;;;;;;;;;;;13.30;99.90;;;;;;5090084;28;20044;-62
2021/08/29 08:47:47;;;;;;;1.45;0.32;;;13.30;99.90;;;;;;5089388;28;19945;-63
2021/08/29 08:50:13;;;;;;;;;;;13.30;99.90;;;;;;5090011;28;20603;-62
2021/08/29 08:52:40;;;;;;;0.52;0.45;;;13.40;99.90;;;;;;5089011;28;19923;-62
2021/08/29 08:55:07;;;;;;;17.55;10.77;;;13.40;99.90;;;;;;5088069;28;20107;-62
2021/08/29 08:57:33;;;;;;;1.95;1.40;;;13.40;99.90;;;;;;5089633;28;20073;-62
2021/08/29 08:59:58;;;;;;;;;;;13.30;99.90;;;;;;5098728;28;20036;-62
2021/08/29 09:02:24;;;;;;;2.40;1.10;;;13.20;99.90;;;;;;5109355;28;19915;-62
2021/08/29 09:04:50;;;;;;;;;;;13.10;99.90;;;;;;5110489;28;20040;-62
2021/08/29 09:07:16;;;;;;;0.85;0.65;;;13.10;99.90;;;;;;5109971;28;19920;-62
2021/08/29 09:09:42;;;;;;;0.43;0.40;;;13.00;99.90;;;;;;5109109;28;20097;-62
2021/08/29 09:12:08;;;;;;;;;;;13.00;99.90;;;;;;5110038;28;20031;-62
2021/08/29 09:14:41;;;;;;;1.02;0.70;;;13.00;99.90;;;;;;5109337;28;20446;-62
2021/08/29 09:17:25;;;;;;;1.75;1.15;;;13.00;99.90;;;;;;5107119;28;20043;-62
2021/08/29 09:20:11;;;;;;;1.83;1.20;;;13.00;99.90;;;;;;5088102;28;20050;-62
2021/08/29 09:22:39;;;;;;;1.05;0.70;;;13.10;99.90;;;;;;5088247;28;20036;-62
2021/08/29 09:25:08;;;;;;;2.33;1.27;;;13.10;99.90;;;;;;5082714;28;20079;-62
2021/08/29 09:27:34;;;;;;;0.40;0.30;;;13.10;99.90;;;;;;5081631;28;20052;-64
2021/08/29 09:30:02;;;;;;;;;;;13.10;99.90;;;;;;5079581;28;20081;-63
2021/08/29 09:32:29;;;;;;;0.57;0.30;;;13.00;99.90;;;;;;5086528;28;20397;-62
2021/08/29 09:34:59;;;;;;;0.10;0.10;;;13.10;99.90;;;;;;5088549;28;20040;-63
2021/08/29 09:37:25;;;;;;;0.20;0.20;;;13.10;99.90;;;;;;5088743;28;20131;-63
2021/08/29 09:39:50;;;;;;;;;;;13.10;99.90;;;;;;5088852;28;20123;-63
2021/08/29 09:42:16;;;;;;;0.35;0.30;;;13.00;99.90;;;;;;5088172;28;19963;-63
2021/08/29 09:44:42;;;;;;;;;;;13.10;99.90;;;;;;5088617;28;20035;-64
2021/08/29 09:47:12;;;;;;;0.20;0.20;;;13.10;99.90;;;;;;5087495;28;20291;-63
2021/08/29 09:49:38;;;;;;;0.50;0.32;;;13.10;99.90;;;;;;5086284;28;20665;-63
2021/08/29 09:52:05;;;;;;;;;;;13.10;99.90;;;;;;5089841;28;20118;-63
2021/08/29 09:54:41;;;;;;;0.32;0.30;;;13.00;99.90;;;;;;5087589;28;19912;-63
2021/08/29 09:57:12;;;;;;;0.28;0.28;;;13.00;99.90;;;;;;5088060;28;20044;-64
2021/08/29 09:59:41;;;;;;;0.57;0.20;;;13.00;99.90;;;;;;5101500;28;20114;-62
2021/08/29 10:02:09;;;;;;;0.10;0.10;;;13.00;99.90;;;;;;5106120;28;20123;-62
2021/08/29 10:04:35;;;;;;;0.20;0.20;;;13.00;99.90;;;;;;5109597;28;20058;-63
2021/08/29 10:07:13;;;;;;;;;;;13.00;99.90;;;;;;5108287;28;20043;-63
2021/08/29 10:09:39;;;;;;;1.00;0.30;;;13.10;99.90;;;;;;5107363;28;19915;-64
2021/08/29 10:12:07;;;;;;;0.75;0.40;;;13.10;99.90;;;;;;5118393;28;20039;-63
2021/08/29 10:14:35;;;;;;;0.40;0.35;;;13.10;99.90;;;;;;5116721;28;20105;-64
2021/08/29 10:17:01;;;;;;;0.40;0.30;;;13.10;99.90;;;;;;5108591;28;20048;-64
2021/08/29 10:19:29;;;;;;;0.40;0.20;;;13.00;99.90;;;;;;5087792;28;20043;-64
2021/08/29 10:21:55;;;;;;;2.38;0.38;;;13.10;99.90;;;;;;5087697;28;20040;-63
2021/08/29 10:24:22;;;;;;;0.60;0.60;;;13.10;99.90;;;;;;5088348;28;20374;-63
2021/08/29 10:26:52;;;;;;;0.55;0.45;;;13.10;99.90;;;;;;5087242;28;20052;-65
2021/08/29 10:29:23;;;;;;;0.30;0.30;;;13.20;99.90;;;;;;5096317;28;20028;-65
2021/08/29 10:32:18;;;;;;;0.40;0.40;;;13.10;99.90;;;;;;5101651;28;20118;-63
2021/08/29 10:34:44;;;;;;;0.75;0.32;;;13.10;99.90;;;;;;5103506;28;20048;-64
2021/08/29 10:37:10;;;;;;;;;;;13.20;99.90;;;;;;5090714;28;20702;-64
2021/08/29 10:39:36;;;;;;;1.00;0.40;;;13.20;99.90;;;;;;5107048;28;19919;-64
2021/08/29 10:42:02;;;;;;;0.47;0.40;;;13.20;99.90;;;;;;5108732;28;20074;-63
2021/08/29 10:44:29;;;;;;;1.02;0.70;;;13.20;99.90;;;;;;5107065;28;20088;-64
2021/08/29 10:46:56;;;;;;;0.40;0.40;;;13.20;99.90;;;;;;5107146;28;20124;-64
2021/08/29 10:49:22;;;;;;;2.30;0.40;;;13.20;99.90;;;;;;5106295;28;20031;-64
2021/08/29 10:51:50;;;;;;;;;;;13.20;99.90;;;;;;5107504;28;20690;-64
2021/08/29 10:54:15;;;;;;;0.30;0.30;;;13.20;99.90;;;;;;5107493;28;20288;-64
2021/08/29 10:56:41;;;;;;;;;;;13.30;99.90;;;;;;5107673;28;20130;-64
2021/08/29 10:59:07;;;;;;;0.40;0.20;;;13.30;99.90;;;;;;5099918;28;19958;-64
2021/08/29 11:01:33;;;;;;;;;;;13.30;99.90;;;;;;5092479;28;20117;-67
2021/08/29 11:03:58;;;;;;;0.50;0.40;;;13.40;99.90;;;;;;5078889;28;19920;-64
2021/08/29 11:06:43;;;;;;;;;;;13.40;99.90;;;;;;5078706;28;20065;-65
2021/08/29 11:09:36;;;;;;;0.82;0.35;;;13.40;99.90;;;;;;5087605;28;19916;-63
2021/08/29 11:12:12;;;;;;;1.00;0.40;;;13.40;99.90;;;;;;5087156;28;20082;-64
2021/08/29 11:14:44;;;;;;;0.40;0.30;;;13.30;99.90;;;;;;5086927;28;20495;-64
2021/08/29 11:17:17;;;;;;;1.02;0.50;;;13.30;99.90;;;;;;5086167;28;20142;-64
2021/08/29 11:19:45;;;;;;;0.57;0.50;;;13.40;99.90;;;;;;5086513;28;20044;-64
2021/08/29 11:22:16;;;;;;;0.93;0.50;;;13.30;99.90;;;;;;5086293;28;20032;-65
2021/08/29 11:25:01;;;;;;;0.95;0.55;;;13.30;99.90;;;;;;5089358;28;20487;-63
2021/08/29 11:27:36;;;;;;;0.68;0.60;;;13.30;99.90;;;;;;5079156;28;20735;-65
2021/08/29 11:30:05;;;;;;;1.52;0.60;;;13.40;99.90;;;;;;5085918;28;20044;-65
2021/08/29 11:32:39;;;;;;;2.17;0.82;;;13.50;99.90;;;;;;5085880;28;20509;-64
2021/08/29 11:35:09;;;;;;;3.92;1.20;;;13.50;99.90;;;;;;5086957;28;20047;-64
2021/08/29 11:37:35;;;;;;;1.48;1.20;;;13.50;99.90;;;;;;5085004;28;20122;-64
2021/08/29 11:40:04;;;;;;;2.10;1.55;;;13.50;99.90;;;;;;5086517;28;20040;-64
2021/08/29 11:42:30;;;;;;;3.63;1.48;;;13.50;99.90;;;;;;5086751;28;20075;-65
2021/08/29 11:44:56;;;;;;;;;;;13.50;99.90;;;;;;5091144;28;20093;-64
2021/08/29 11:47:35;;;;;;;2.60;1.50;;;13.50;99.90;;;;;;5104576;27;19932;-64
2021/08/29 11:50:04;;;;;;;1.30;1.20;;;13.60;99.90;;;;;;5107088;28;20046;-65
2021/08/29 11:52:31;;;;;;;1.17;1.08;;;13.60;99.90;;;;;;5107545;28;20034;-65
2021/08/29 11:55:07;;;;;;;1.90;1.00;;;13.60;99.90;;;;;;5107195;28;20123;-64
2021/08/29 11:57:48;;;;;;;0.80;0.80;;;13.70;99.90;;;;;;5104419;28;20598;-65
2021/08/29 12:00:15;;;;;;;1.55;1.30;;;13.60;99.90;;;;;;5086215;28;20101;-64
2021/08/29 12:02:42;;;;;;;0.75;0.70;;;13.60;99.90;;;;;;5068645;28;20063;-65
2021/08/29 12:05:13;;;;;;;0.90;0.80;;;13.70;99.90;;;;;;5086596;28;20071;-65
2021/08/29 12:07:45;;;;;;;2.88;0.70;;;13.70;99.90;;;;;;5087616;28;20043;-64
2021/08/29 12:10:13;;;;;;;1.75;0.98;;;13.80;99.90;;;;;;5106239;28;20491;-65
2021/08/29 12:12:39;;;;;;;2.38;1.55;;;13.70;99.90;;;;;;5106015;28;21140;-64
2021/08/29 12:15:05;;;;;;;;;;;13.70;99.90;;;;;;5110511;28;20787;-65
2021/08/29 12:17:32;;;;;;;48.67;28.88;;;13.70;99.90;;;;;;5105289;27;20001;-67
2021/08/29 12:19:58;;;;;;;11.07;6.43;;;13.80;99.90;;;;;;5082703;28;20044;-64
2021/08/29 12:22:24;;;;;;;2.70;2.20;;;13.80;99.90;;;;;;5086884;28;20089;-65
2021/08/29 12:24:50;;;;;;;;;;;13.90;99.90;;;;;;5083997;28;20039;-68
2021/08/29 12:27:21;;;;;;;1.80;1.40;;;13.80;99.90;;;;;;5084955;28;19967;-64
2021/08/29 12:29:55;;;;;;;2.20;2.00;;;13.80;99.90;;;;;;5079310;28;20627;-64
2021/08/29 12:32:29;;;;;;;2.92;1.55;;;13.70;99.90;;;;;;5079165;28;20036;-64
2021/08/29 12:34:57;;;;;;;1.65;1.55;;;13.80;99.90;;;;;;5088438;28;20170;-64
2021/08/29 12:37:23;;;;;;;1.90;1.33;;;13.80;99.90;;;;;;5087432;28;20056;-64
2021/08/29 12:40:08;;;;;;;2.83;1.83;;;13.90;99.90;;;;;;5087759;28;20559;-63
2021/08/29 12:42:56;;;;;;;1.83;1.73;;;13.80;99.90;;;;;;5087988;28;20527;-63
2021/08/29 12:45:22;;;;;;;2.20;1.98;;;13.80;99.90;;;;;;5089950;28;20052;-64
2021/08/29 12:47:48;;;;;;;;;;;13.80;99.90;;;;;;5109146;28;20038;-64
2021/08/29 12:50:19;;;;;;;3.38;2.38;;;13.80;99.90;;;;;;5109153;28;19915;-63
2021/08/29 12:52:59;;;;;;;3.50;2.78;;;13.80;99.90;;;;;;5109743;28;20419;-64
2021/08/29 12:55:28;;;;;;;2.88;2.08;;;13.80;99.90;;;;;;5109381;28;20538;-64
2021/08/29 12:58:01;;;;;;;3.17;2.80;;;13.80;99.90;;;;;;5103641;28;20040;-64
2021/08/29 13:00:37;;;;;;;2.60;2.17;;;13.80;99.90;;;;;;5088029;28;20036;-64
2021/08/29 13:03:03;;;;;;;2.05;1.85;;;13.80;99.90;;;;;;5089020;28;20123;-64
2021/08/29 13:05:37;;;;;;;3.00;2.17;;;13.80;99.90;;;;;;5070723;28;20535;-64
2021/08/29 13:08:03;;;;;;;2.22;1.88;;;13.90;99.90;;;;;;5092937;28;20040;-64
2021/08/29 13:10:28;;;;;;;3.80;2.42;;;14.00;99.90;;;;;;5108612;28;20067;-64
2021/08/29 13:13:04;;;;;;;;;;;13.90;99.90;;;;;;5108834;28;20063;-63